createdAt,value
2022-11-27T00:01:21.897Z,67.37
2022-11-27T00:03:49.532Z,67.49
2022-11-27T00:06:19.371Z,67.67
2022-11-27T00:08:46.276Z,67.64
2022-11-27T00:11:15.970Z,67.36
2022-11-27T00:13:42.804Z,67.55
2022-11-27T00:16:09.914Z,68.01
2022-11-27T00:18:36.748Z,67.91
2022-11-27T00:21:08.000Z,67.62
2022-11-27T00:23:36.503Z,68.09
2022-11-27T00:26:04.482Z,67.48
2022-11-27T00:28:31.740Z,67.93
2022-11-27T00:31:00.236Z,67.83
2022-11-27T00:33:26.853Z,67.72
2022-11-27T00:35:53.741Z,67.76
2022-11-27T00:38:20.599Z,67.96
2022-11-27T00:40:47.852Z,67.80
2022-11-27T00:43:14.507Z,67.96
2022-11-27T00:45:41.106Z,68.03
2022-11-27T00:48:07.730Z,67.86
2022-11-27T00:50:34.337Z,67.89
2022-11-27T00:53:01.166Z,67.90
2022-11-27T00:55:27.767Z,67.93
2022-11-27T00:57:54.305Z,67.68
2022-11-27T01:00:22.175Z,67.64
2022-11-27T01:02:48.807Z,67.28
2022-11-27T01:05:15.468Z,67.39
2022-11-27T01:07:42.439Z,67.68
2022-11-27T01:10:09.635Z,67.54
2022-11-27T01:12:36.266Z,67.38
2022-11-27T01:15:03.996Z,67.56
2022-11-27T01:17:30.601Z,68.01
2022-11-27T01:19:57.226Z,68.16
2022-11-27T01:22:23.770Z,67.85
2022-11-27T01:24:50.384Z,68.50
2022-11-27T01:27:16.979Z,68.42
2022-11-27T01:29:43.666Z,68.79
2022-11-27T01:32:10.275Z,68.21
2022-11-27T01:34:36.857Z,68.13
2022-11-27T01:37:03.494Z,68.22
2022-11-27T01:39:30.124Z,68.89
2022-11-27T01:41:56.749Z,68.62
2022-11-27T01:44:23.248Z,68.38
2022-11-27T01:47:07.136Z,68.68
2022-11-27T01:49:38.779Z,68.46
2022-11-27T01:52:15.974Z,68.50
2022-11-27T01:54:42.772Z,69.08
2022-11-27T01:57:18.980Z,69.01
2022-11-27T01:59:48.074Z,68.81
2022-11-27T02:02:14.966Z,68.89
2022-11-27T02:04:41.784Z,68.91
2022-11-27T02:07:08.587Z,68.80
2022-11-27T02:09:35.461Z,68.84
2022-11-27T02:12:02.405Z,68.70
2022-11-27T02:14:53.814Z,68.39
2022-11-27T02:17:28.367Z,68.77
2022-11-27T02:20:18.741Z,68.66
2022-11-27T02:23:13.307Z,68.66
2022-11-27T02:25:52.470Z,68.54
2022-11-27T02:28:48.175Z,68.71
2022-11-27T02:31:21.865Z,68.62
2022-11-27T02:33:55.130Z,68.66
2022-11-27T02:36:29.588Z,68.34
2022-11-27T02:39:05.394Z,68.46
2022-11-27T02:41:53.912Z,68.62
2022-11-27T02:44:22.732Z,68.93
2022-11-27T02:46:50.047Z,68.75
2022-11-27T02:49:18.986Z,68.34
2022-11-27T02:51:51.030Z,68.53
2022-11-27T02:54:23.472Z,68.11
2022-11-27T02:56:53.006Z,68.26
2022-11-27T02:59:21.875Z,68.32
2022-11-27T03:01:53.731Z,68.67
2022-11-27T03:04:28.356Z,68.37
2022-11-27T03:06:59.314Z,68.27
2022-11-27T03:09:34.352Z,68.29
2022-11-27T03:12:02.801Z,68.42
2022-11-27T03:14:29.584Z,68.42
2022-11-27T03:17:02.814Z,68.46
2022-11-27T03:20:09.862Z,67.97
2022-11-27T03:22:36.498Z,67.96
2022-11-27T03:25:04.093Z,68.10
2022-11-27T03:27:37.502Z,68.25
2022-11-27T03:30:06.974Z,68.40
2022-11-27T03:32:33.852Z,68.54
2022-11-27T03:35:00.840Z,68.41
2022-11-27T03:37:28.295Z,68.34
2022-11-27T03:39:55.226Z,68.91
2022-11-27T03:42:53.048Z,69.51
2022-11-27T03:45:32.971Z,69.24
2022-11-27T03:48:02.575Z,69.23
2022-11-27T03:50:54.967Z,68.96
2022-11-27T03:53:33.649Z,68.59
2022-11-27T03:56:33.915Z,68.61
2022-11-27T03:59:07.651Z,68.50
2022-11-27T04:01:34.506Z,68.18
2022-11-27T04:04:01.304Z,68.02
2022-11-27T04:06:27.986Z,68.37
2022-11-27T04:08:54.647Z,68.00
2022-11-27T04:11:21.249Z,67.33
2022-11-27T04:13:47.898Z,67.62
2022-11-27T04:16:14.551Z,67.81
2022-11-27T04:18:41.218Z,67.04
2022-11-27T04:21:07.833Z,67.20
2022-11-27T04:23:34.578Z,67.18
2022-11-27T04:26:01.320Z,67.70
2022-11-27T04:28:27.860Z,67.71
2022-11-27T04:30:54.875Z,67.39
2022-11-27T04:33:22.289Z,67.60
2022-11-27T04:35:50.520Z,67.02
2022-11-27T04:38:17.917Z,67.32
2022-11-27T04:40:44.754Z,67.29
2022-11-27T04:43:11.690Z,66.79
2022-11-27T04:45:38.572Z,67.10
2022-11-27T04:48:05.675Z,66.62
2022-11-27T04:50:32.249Z,66.72
2022-11-27T04:52:59.910Z,66.66
2022-11-27T04:55:26.831Z,66.57
2022-11-27T04:57:53.362Z,66.60
2022-11-27T05:00:20.736Z,66.85
2022-11-27T05:02:47.430Z,67.15
2022-11-27T05:05:14.113Z,67.18
2022-11-27T05:07:40.739Z,66.86
2022-11-27T05:10:08.154Z,66.31
2022-11-27T05:12:34.749Z,65.93
2022-11-27T05:15:04.465Z,65.65
2022-11-27T05:17:31.912Z,65.35
2022-11-27T05:19:59.640Z,64.65
2022-11-27T05:22:26.211Z,64.90
2022-11-27T05:24:52.771Z,64.73
2022-11-27T05:27:19.431Z,64.50
2022-11-27T05:29:46.960Z,64.53
2022-11-27T05:32:13.701Z,64.79
2022-11-27T05:34:40.548Z,64.47
2022-11-27T05:37:07.714Z,64.56
2022-11-27T05:39:34.315Z,65.03
2022-11-27T05:42:00.998Z,64.89
2022-11-27T05:44:27.648Z,65.06
2022-11-27T05:46:54.408Z,65.51
2022-11-27T05:49:21.132Z,65.29
2022-11-27T05:51:51.407Z,65.08
2022-11-27T05:54:19.085Z,64.37
2022-11-27T05:56:45.749Z,64.49
2022-11-27T05:59:12.734Z,64.47
2022-11-27T06:01:39.421Z,64.56
2022-11-27T06:04:06.223Z,63.77
2022-11-27T06:06:32.874Z,64.67
2022-11-27T06:08:59.484Z,64.04
2022-11-27T06:11:26.162Z,64.26
2022-11-27T06:13:52.876Z,64.10
2022-11-27T06:16:23.921Z,63.74
2022-11-27T06:18:52.492Z,63.52
2022-11-27T06:21:20.673Z,63.55
2022-11-27T06:23:47.641Z,63.95
2022-11-27T06:26:24.776Z,63.55
2022-11-27T06:28:52.062Z,63.77
2022-11-27T06:31:21.585Z,63.87
2022-11-27T06:33:49.744Z,63.77
2022-11-27T06:36:17.497Z,63.32
2022-11-27T06:38:45.070Z,63.26
2022-11-27T06:41:14.966Z,63.28
2022-11-27T06:43:41.915Z,63.06
2022-11-27T06:46:12.080Z,62.84
2022-11-27T06:48:38.686Z,63.62
2022-11-27T06:51:07.439Z,63.91
2022-11-27T06:53:38.031Z,64.00
2022-11-27T06:56:06.919Z,63.70
2022-11-27T06:58:33.457Z,62.91
2022-11-27T07:01:01.346Z,63.25
2022-11-27T07:03:28.358Z,63.08
2022-11-27T07:05:55.093Z,63.14
2022-11-27T07:08:22.535Z,63.30
2022-11-27T07:10:49.288Z,63.44
2022-11-27T07:13:15.962Z,62.54
2022-11-27T07:15:42.966Z,62.73
2022-11-27T07:18:09.978Z,63.07
2022-11-27T07:20:36.720Z,63.66
2022-11-27T07:23:03.398Z,62.74
2022-11-27T07:25:29.980Z,62.70
2022-11-27T07:27:56.536Z,62.67
2022-11-27T07:30:23.160Z,62.24
2022-11-27T07:32:49.704Z,62.44
2022-11-27T07:35:16.422Z,63.68
2022-11-27T07:37:42.971Z,64.20
2022-11-27T07:40:09.627Z,64.22
2022-11-27T07:42:38.681Z,63.50
2022-11-27T07:45:08.397Z,63.02
2022-11-27T07:47:34.972Z,62.60
2022-11-27T07:50:01.775Z,62.04
2022-11-27T07:52:28.375Z,61.75
2022-11-27T07:54:55.058Z,61.98
2022-11-27T07:57:21.872Z,61.43
2022-11-27T07:59:48.558Z,61.69
2022-11-27T08:02:15.346Z,61.56
2022-11-27T08:04:42.393Z,62.30
2022-11-27T08:07:09.230Z,63.15
2022-11-27T08:09:35.984Z,63.20
2022-11-27T08:12:02.621Z,63.37
2022-11-27T08:14:29.258Z,63.39
2022-11-27T08:16:56.263Z,63.58
2022-11-27T08:19:23.092Z,63.32
2022-11-27T08:21:50.067Z,62.39
2022-11-27T08:24:16.740Z,62.72
2022-11-27T08:26:43.779Z,62.80
2022-11-27T08:29:13.394Z,62.57
2022-11-27T08:31:40.320Z,62.04
2022-11-27T08:34:06.996Z,61.85
2022-11-27T08:36:33.712Z,60.59
2022-11-27T08:39:01.328Z,60.02
2022-11-27T08:41:28.163Z,59.46
2022-11-27T08:43:54.851Z,59.14
2022-11-27T08:46:21.437Z,59.86
2022-11-27T08:48:48.286Z,59.90
2022-11-27T08:51:15.622Z,59.56
2022-11-27T08:53:45.495Z,59.30
2022-11-27T08:56:18.528Z,59.27
2022-11-27T08:58:45.839Z,59.65
2022-11-27T09:01:18.391Z,59.53
2022-11-27T09:03:45.136Z,59.38
2022-11-27T09:06:15.569Z,58.70
2022-11-27T09:08:43.670Z,58.64
2022-11-27T09:11:12.313Z,58.00
2022-11-27T09:13:40.356Z,57.72
2022-11-27T09:16:18.814Z,57.14
2022-11-27T09:18:47.325Z,56.12
2022-11-27T09:21:17.924Z,55.81
2022-11-27T09:23:44.721Z,56.10
2022-11-27T09:26:17.240Z,55.94
2022-11-27T09:28:44.773Z,55.86
2022-11-27T09:31:19.649Z,55.28
2022-11-27T09:33:46.558Z,54.47
2022-11-27T09:36:16.808Z,53.25
2022-11-27T09:38:46.436Z,53.29
2022-11-27T09:41:22.493Z,53.45
2022-11-27T09:43:52.398Z,53.67
2022-11-27T09:46:40.987Z,53.83
2022-11-27T09:49:12.536Z,54.38
2022-11-27T09:51:47.044Z,53.81
2022-11-27T09:54:32.316Z,53.50
2022-11-27T09:56:59.517Z,52.33
2022-11-27T09:59:35.541Z,52.19
2022-11-27T10:02:02.312Z,51.22
2022-11-27T10:04:36.186Z,50.71
2022-11-27T10:07:23.757Z,50.58
2022-11-27T10:10:35.617Z,50.63
2022-11-27T10:13:25.633Z,50.51
2022-11-27T10:16:04.199Z,50.56
2022-11-27T10:18:54.680Z,51.70
2022-11-27T10:21:45.574Z,52.64
2022-11-27T10:24:44.323Z,52.79
2022-11-27T10:27:23.257Z,53.00
2022-11-27T10:29:55.746Z,52.08
2022-11-27T10:32:53.986Z,52.28
2022-11-27T10:35:20.138Z,51.81
2022-11-27T10:38:13.097Z,50.76
2022-11-27T10:40:55.556Z,49.77
2022-11-27T10:43:24.425Z,50.29
2022-11-27T10:45:56.732Z,50.91
2022-11-27T10:48:25.101Z,51.78
2022-11-27T10:50:51.987Z,51.42
2022-11-27T10:53:27.534Z,51.50
2022-11-27T10:56:06.245Z,50.99
2022-11-27T10:58:47.444Z,49.82
2022-11-27T11:01:25.250Z,48.92
2022-11-27T11:04:24.356Z,47.91
2022-11-27T11:06:52.180Z,47.03
2022-11-27T11:09:31.872Z,48.43
2022-11-27T11:12:21.288Z,47.74
2022-11-27T11:14:55.749Z,46.51
2022-11-27T11:17:35.119Z,46.25
2022-11-27T11:20:18.821Z,45.73
2022-11-27T11:22:47.379Z,44.37
2022-11-27T11:25:19.198Z,44.18
2022-11-27T11:27:47.946Z,42.60
2022-11-27T11:30:28.747Z,40.55
2022-11-27T11:33:14.071Z,40.27
2022-11-27T11:36:06.970Z,41.84
2022-11-27T11:38:33.831Z,43.24
2022-11-27T11:41:04.675Z,42.91
2022-11-27T11:43:35.706Z,42.72
2022-11-27T11:46:19.233Z,42.15
2022-11-27T11:48:58.568Z,41.42
2022-11-27T11:52:09.485Z,37.34
2022-11-27T11:55:02.801Z,37.10
2022-11-27T11:57:41.339Z,36.54
2022-11-27T12:00:53.143Z,36.26
2022-11-27T12:03:38.533Z,35.25
2022-11-27T12:06:20.218Z,34.26
2022-11-27T12:09:19.909Z,32.84
2022-11-27T12:11:46.345Z,30.97
2022-11-27T12:14:22.194Z,32.51
2022-11-27T12:17:13.541Z,32.50
2022-11-27T12:20:03.183Z,31.65
2022-11-27T12:22:37.172Z,32.08
2022-11-27T12:25:12.940Z,32.35
2022-11-27T12:27:51.980Z,35.02
2022-11-27T12:30:22.112Z,36.46
2022-11-27T12:32:51.834Z,37.77
2022-11-27T12:35:24.524Z,37.60
2022-11-27T12:38:25.623Z,36.21
2022-11-27T12:41:16.048Z,36.13
2022-11-27T12:43:50.719Z,38.16
2022-11-27T12:46:37.577Z,39.15
2022-11-27T12:49:16.886Z,40.07
2022-11-27T12:51:51.785Z,42.08
2022-11-27T12:54:26.188Z,43.63
2022-11-27T12:57:00.366Z,44.07
2022-11-27T12:59:56.980Z,44.15
2022-11-27T13:02:42.359Z,44.58
2022-11-27T13:05:42.423Z,45.37
2022-11-27T13:08:16.149Z,45.60
2022-11-27T13:10:54.236Z,46.84
2022-11-27T13:13:44.226Z,47.24
2022-11-27T13:16:27.585Z,47.47
2022-11-27T13:19:12.158Z,47.84
2022-11-27T13:21:43.588Z,48.03
2022-11-27T13:24:20.832Z,48.09
2022-11-27T13:27:05.768Z,48.27
2022-11-27T13:29:53.286Z,48.30
2022-11-27T13:32:33.566Z,48.78
2022-11-27T13:35:22.013Z,48.86
2022-11-27T13:37:55.296Z,49.18
2022-11-27T13:40:27.329Z,49.77
2022-11-27T13:42:57.253Z,49.90
2022-11-27T13:45:24.303Z,50.22
2022-11-27T13:48:01.051Z,50.29
2022-11-27T13:50:31.847Z,50.27
2022-11-27T13:53:12.066Z,50.35
2022-11-27T13:55:52.221Z,50.78
2022-11-27T13:58:51.607Z,50.64
2022-11-27T14:01:24.085Z,51.13
2022-11-27T14:03:51.526Z,52.32
2022-11-27T14:06:39.075Z,52.74
2022-11-27T14:09:07.408Z,52.53
2022-11-27T14:11:41.349Z,52.34
2022-11-27T14:14:20.849Z,52.68
2022-11-27T14:17:25.280Z,52.36
2022-11-27T14:20:02.763Z,53.24
2022-11-27T14:23:07.215Z,53.25
2022-11-27T14:25:33.797Z,53.99
2022-11-27T14:28:26.257Z,53.75
2022-11-27T14:31:02.157Z,53.41
2022-11-27T14:33:47.501Z,53.52
2022-11-27T14:36:34.713Z,54.44
2022-11-27T14:39:24.605Z,54.65
2022-11-27T14:42:27.909Z,54.00
2022-11-27T14:45:08.754Z,54.51
2022-11-27T14:47:41.041Z,54.85
2022-11-27T14:50:17.584Z,54.70
2022-11-27T14:52:50.945Z,54.66
2022-11-27T14:55:19.804Z,54.49
2022-11-27T14:57:59.358Z,54.79
2022-11-27T15:00:34.180Z,54.70
2022-11-27T15:03:13.171Z,54.70
2022-11-27T15:05:40.126Z,54.84
2022-11-27T15:08:10.501Z,54.68
2022-11-27T15:10:48.534Z,54.80
2022-11-27T15:13:31.627Z,54.57
2022-11-27T15:16:15.016Z,55.23
2022-11-27T15:18:43.889Z,55.31
2022-11-27T15:21:20.419Z,55.50
2022-11-27T15:23:50.351Z,55.65
2022-11-27T15:26:47.489Z,55.53
2022-11-27T15:29:38.477Z,55.47
2022-11-27T15:32:24.619Z,55.70
2022-11-27T15:34:54.481Z,55.99
2022-11-27T15:37:35.401Z,56.08
2022-11-27T15:40:08.039Z,55.97
2022-11-27T15:42:34.942Z,55.81
2022-11-27T15:45:07.393Z,55.54
2022-11-27T15:47:37.332Z,55.43
2022-11-27T15:50:06.673Z,55.48
2022-11-27T15:52:33.699Z,55.70
2022-11-27T15:55:03.073Z,55.91
2022-11-27T15:57:36.936Z,56.69
2022-11-27T16:00:04.764Z,56.74
2022-11-27T16:02:38.378Z,56.53
2022-11-27T16:05:12.402Z,55.99
2022-11-27T16:07:39.801Z,55.91
2022-11-27T16:10:07.075Z,56.40
2022-11-27T16:12:39.791Z,56.56
2022-11-27T16:15:07.876Z,56.49
2022-11-27T16:17:35.097Z,56.43
2022-11-27T16:20:02.003Z,56.93
2022-11-27T16:22:28.694Z,56.49
2022-11-27T16:24:55.449Z,57.19
2022-11-27T16:27:22.205Z,56.61
2022-11-27T16:29:49.206Z,57.19
2022-11-27T16:32:15.911Z,56.83
2022-11-27T16:34:42.734Z,57.02
2022-11-27T16:37:18.104Z,56.98
2022-11-27T16:39:45.532Z,57.54
2022-11-27T16:42:12.547Z,57.28
2022-11-27T16:44:39.481Z,57.72
2022-11-27T16:47:06.475Z,57.40
2022-11-27T16:49:33.367Z,57.80
2022-11-27T16:52:00.717Z,57.44
2022-11-27T16:54:28.627Z,57.27
2022-11-27T16:56:56.116Z,57.70
2022-11-27T16:59:23.098Z,57.33
2022-11-27T17:01:49.919Z,57.59
2022-11-27T17:04:19.551Z,57.53
2022-11-27T17:06:48.115Z,58.08
2022-11-27T17:09:15.736Z,57.28
2022-11-27T17:11:45.502Z,57.62
2022-11-27T17:14:12.495Z,57.51
2022-11-27T17:16:41.267Z,57.72
2022-11-27T17:19:13.308Z,57.94
2022-11-27T17:21:41.491Z,59.39
2022-11-27T17:24:15.327Z,59.33
2022-11-27T17:26:47.297Z,59.33
2022-11-27T17:29:16.880Z,59.84
2022-11-27T17:31:43.676Z,59.22
2022-11-27T17:34:17.675Z,58.96
2022-11-27T17:36:45.323Z,58.11
2022-11-27T17:39:14.481Z,58.12
2022-11-27T17:41:44.373Z,57.90
2022-11-27T17:44:14.183Z,58.13
2022-11-27T17:46:41.024Z,58.67
2022-11-27T17:49:08.431Z,58.17
2022-11-27T17:51:39.319Z,58.51
2022-11-27T17:54:06.511Z,58.30
2022-11-27T17:56:34.906Z,58.81
2022-11-27T17:59:02.996Z,59.19
2022-11-27T18:01:30.778Z,59.25
2022-11-27T18:04:03.599Z,58.91
2022-11-27T18:06:31.040Z,59.54
2022-11-27T18:09:00.789Z,59.24
2022-11-27T18:11:31.132Z,58.86
2022-11-27T18:14:01.151Z,59.33
2022-11-27T18:16:44.232Z,59.49
2022-11-27T18:19:11.569Z,59.40
2022-11-27T18:21:39.483Z,59.55
2022-11-27T18:24:22.904Z,59.56
2022-11-27T18:29:39.908Z,60.51
2022-11-27T18:32:14.027Z,60.60
2022-11-27T18:34:41.701Z,60.49
2022-11-27T18:37:08.805Z,60.21
2022-11-27T18:39:37.166Z,59.40
2022-11-27T18:42:05.350Z,59.84
2022-11-27T18:44:37.249Z,59.61
2022-11-27T18:47:10.672Z,58.90
2022-11-27T18:49:38.999Z,59.05
2022-11-27T18:52:07.027Z,58.75
2022-11-27T18:54:34.005Z,58.67
2022-11-27T18:57:01.694Z,58.89
2022-11-27T18:59:30.571Z,59.91
2022-11-27T19:02:11.511Z,59.96
2022-11-27T19:04:39.377Z,59.99
2022-11-27T19:07:07.264Z,59.55
2022-11-27T19:09:33.987Z,59.62
2022-11-27T19:12:00.893Z,59.47
2022-11-27T19:14:28.333Z,59.59
2022-11-27T19:16:55.219Z,59.15
2022-11-27T19:22:15.630Z,58.91
2022-11-27T19:24:44.960Z,58.67
2022-11-27T19:27:13.023Z,58.48
2022-11-27T19:29:40.372Z,58.54
2022-11-27T19:32:07.328Z,58.75
2022-11-27T19:34:34.418Z,59.04
2022-11-27T19:37:07.753Z,58.82
2022-11-27T19:39:34.711Z,58.27
2022-11-27T19:42:03.886Z,58.30
2022-11-27T19:44:30.945Z,58.69
2022-11-27T19:46:57.701Z,58.04
2022-11-27T19:49:26.061Z,57.99
2022-11-27T19:51:55.818Z,57.78
2022-11-27T19:54:23.792Z,58.21
2022-11-27T19:56:51.209Z,57.88
2022-11-27T19:59:24.260Z,58.40
2022-11-27T20:01:53.542Z,58.31
2022-11-27T20:04:25.426Z,58.06
2022-11-27T20:06:53.197Z,58.25
2022-11-27T20:09:23.481Z,58.81
2022-11-27T20:11:53.619Z,58.13
2022-11-27T20:14:22.014Z,58.12
2022-11-27T20:16:50.525Z,58.34
2022-11-27T20:19:20.876Z,58.39
2022-11-27T20:21:50.657Z,58.64
2022-11-27T20:24:22.557Z,59.05
2022-11-27T20:26:52.436Z,59.05
2022-11-27T20:29:24.084Z,59.31
2022-11-27T20:31:51.236Z,59.49
2022-11-27T20:34:21.128Z,59.31
2022-11-27T20:36:48.926Z,59.13
2022-11-27T20:39:20.821Z,58.75
2022-11-27T20:41:52.011Z,59.17
2022-11-27T20:44:25.437Z,59.22
2022-11-27T20:46:54.623Z,58.84
2022-11-27T20:49:22.962Z,58.51
2022-11-27T20:51:50.815Z,59.09
2022-11-27T20:54:22.985Z,59.17
2022-11-27T20:56:51.172Z,59.26
2022-11-27T20:59:19.073Z,58.90
2022-11-27T21:01:48.636Z,58.49
2022-11-27T21:04:23.157Z,58.56
2022-11-27T21:06:50.903Z,58.50
2022-11-27T21:09:21.945Z,58.18
2022-11-27T21:11:48.941Z,57.95
2022-11-27T21:14:16.586Z,57.85
2022-11-27T21:16:51.507Z,57.48
2022-11-27T21:19:27.890Z,57.64
2022-11-27T21:21:56.645Z,57.58
2022-11-27T21:24:27.423Z,57.40
2022-11-27T21:26:55.270Z,57.37
2022-11-27T21:29:25.592Z,57.48
2022-11-27T21:31:54.014Z,57.14
2022-11-27T21:34:21.025Z,56.49
2022-11-27T21:36:49.583Z,56.35
2022-11-27T21:39:23.831Z,56.55
2022-11-27T21:41:54.746Z,56.83
2022-11-27T21:44:24.697Z,56.38
2022-11-27T21:46:52.222Z,56.34
2022-11-27T21:49:20.520Z,56.58
2022-11-27T21:51:52.019Z,57.20
2022-11-27T21:54:19.494Z,56.58
2022-11-27T21:56:46.439Z,56.71
2022-11-27T21:59:14.160Z,56.98
2022-11-27T22:01:41.160Z,56.98
2022-11-27T22:04:07.848Z,57.25
2022-11-27T22:06:40.323Z,57.36
2022-11-27T22:09:13.355Z,56.82
2022-11-27T22:11:42.571Z,56.65
2022-11-27T22:14:09.946Z,56.79
2022-11-27T22:16:44.739Z,56.46
2022-11-27T22:19:12.383Z,56.20
2022-11-27T22:21:39.146Z,56.13
2022-11-27T22:24:12.052Z,56.70
2022-11-27T22:26:49.044Z,56.08
2022-11-27T22:29:16.829Z,56.11
2022-11-27T22:31:46.346Z,55.77
2022-11-27T22:34:18.187Z,55.51
2022-11-27T22:36:49.801Z,55.05
2022-11-27T22:39:19.731Z,54.74
2022-11-27T22:41:46.981Z,54.31
2022-11-27T22:44:21.375Z,54.86
2022-11-27T22:46:49.207Z,54.91
2022-11-27T22:49:18.141Z,54.94
2022-11-27T22:51:46.040Z,55.05
2022-11-27T22:54:17.218Z,54.46
2022-11-27T22:56:48.898Z,54.97
2022-11-27T22:59:34.729Z,54.07
2022-11-27T23:02:04.843Z,54.01
2022-11-27T23:04:32.752Z,54.10
2022-11-27T23:07:00.004Z,53.49
2022-11-27T23:09:28.197Z,53.28
2022-11-27T23:11:56.502Z,52.25
2022-11-27T23:14:24.797Z,51.63
2022-11-27T23:16:51.473Z,51.84
2022-11-27T23:19:18.341Z,51.78
2022-11-27T23:21:44.928Z,51.07
2022-11-27T23:24:14.120Z,50.70
2022-11-27T23:26:41.331Z,51.23
2022-11-27T23:29:08.245Z,50.54
2022-11-27T23:31:36.330Z,51.14
2022-11-27T23:34:07.567Z,51.04
2022-11-27T23:36:34.836Z,50.61
2022-11-27T23:39:03.740Z,50.51
2022-11-27T23:41:31.628Z,50.66
2022-11-27T23:43:58.462Z,50.67
2022-11-27T23:46:28.505Z,50.64
2022-11-27T23:48:57.770Z,50.66
2022-11-27T23:51:27.145Z,50.53
2022-11-27T23:53:54.482Z,50.20
2022-11-27T23:56:27.645Z,51.25
2022-11-27T23:58:56.517Z,51.44
